createdAt,value
2018-12-19T00:00:42.935Z,-2.40
2018-12-19T00:03:11.214Z,-2.50
2018-12-19T00:05:39.487Z,-2.50
2018-12-19T00:08:07.891Z,-2.50
2018-12-19T00:10:36.187Z,-2.50
2018-12-19T00:13:04.643Z,-2.50
2018-12-19T00:15:32.886Z,-2.50
2018-12-19T00:18:01.110Z,-2.40
2018-12-19T00:20:29.367Z,-2.40
2018-12-19T00:22:57.675Z,-2.40
2018-12-19T00:25:25.861Z,-2.30
2018-12-19T00:27:54.125Z,-2.30
2018-12-19T00:30:22.390Z,-2.30
2018-12-19T00:32:50.617Z,-2.30
2018-12-19T00:35:18.835Z,-2.20
2018-12-19T00:37:47.353Z,-2.20
2018-12-19T00:40:15.535Z,-2.10
2018-12-19T00:42:43.800Z,-2.00
2018-12-19T00:45:12.239Z,-2.00
2018-12-19T00:47:40.655Z,-2.00
2018-12-19T00:50:09.225Z,-2.00
2018-12-19T00:52:37.485Z,-1.90
2018-12-19T00:55:05.865Z,-1.90
2018-12-19T00:57:34.083Z,-1.80
2018-12-19T01:00:02.373Z,-1.80
2018-12-19T01:02:30.551Z,-1.80
2018-12-19T01:04:58.805Z,-1.70
2018-12-19T01:07:26.997Z,-1.70
2018-12-19T01:09:55.302Z,-1.60
2018-12-19T01:12:23.560Z,-1.60
2018-12-19T01:14:51.771Z,-1.60
2018-12-19T01:17:20.079Z,-1.60
2018-12-19T01:19:48.356Z,-1.60
2018-12-19T01:22:16.652Z,-1.60
2018-12-19T01:24:45.000Z,-1.40
2018-12-19T01:27:13.243Z,-1.40
2018-12-19T01:29:41.502Z,-1.50
2018-12-19T01:32:09.863Z,-1.50
2018-12-19T01:34:38.108Z,-1.60
2018-12-19T01:37:06.482Z,-1.60
2018-12-19T01:39:34.776Z,-1.70
2018-12-19T01:42:03.158Z,-1.70
2018-12-19T01:44:31.407Z,-1.80
2018-12-19T01:46:59.682Z,-1.80
2018-12-19T01:49:28.078Z,-1.90
2018-12-19T01:51:56.320Z,-1.90
2018-12-19T01:54:24.531Z,-2.00
2018-12-19T01:56:52.885Z,-2.00
2018-12-19T01:59:21.176Z,-2.00
2018-12-19T02:01:49.575Z,-2.00
2018-12-19T02:04:18.014Z,-2.00
2018-12-19T02:06:46.350Z,-1.90
2018-12-19T02:09:15.057Z,-2.00
2018-12-19T02:11:43.310Z,-2.00
2018-12-19T02:14:11.698Z,-2.00
2018-12-19T02:16:39.921Z,-2.00
2018-12-19T02:19:08.159Z,-2.00
2018-12-19T02:21:36.490Z,-2.00
2018-12-19T02:24:04.831Z,-2.00
2018-12-19T02:26:33.166Z,-1.90
2018-12-19T02:29:01.407Z,-1.90
2018-12-19T02:31:29.700Z,-1.90
2018-12-19T02:33:58.280Z,-1.80
2018-12-19T02:36:26.779Z,-1.80
2018-12-19T02:38:54.995Z,-1.70
2018-12-19T02:41:23.276Z,-1.60
2018-12-19T02:43:51.814Z,-1.60
2018-12-19T02:46:20.040Z,-1.60
2018-12-19T02:48:48.364Z,-1.60
2018-12-19T02:51:16.510Z,-1.60
2018-12-19T02:53:44.767Z,-1.60
2018-12-19T02:56:13.222Z,-1.60
2018-12-19T02:58:41.461Z,-1.60
2018-12-19T03:01:09.773Z,-1.60
2018-12-19T03:03:38.027Z,-1.50
2018-12-19T03:06:06.281Z,-1.50
2018-12-19T03:08:34.540Z,-1.50
2018-12-19T03:11:03.028Z,-1.40
2018-12-19T03:13:31.386Z,-1.50
2018-12-19T03:15:59.715Z,-1.40
2018-12-19T03:18:27.894Z,-1.40
2018-12-19T03:20:56.165Z,-1.30
2018-12-19T03:23:24.576Z,-1.30
2018-12-19T03:25:52.948Z,-1.20
2018-12-19T03:28:21.324Z,-1.20
2018-12-19T03:30:49.676Z,-1.20
2018-12-19T03:33:18.096Z,-1.20
2018-12-19T03:35:46.308Z,-1.10
2018-12-19T03:38:18.761Z,-1.10
2018-12-19T03:40:47.012Z,-1.20
2018-12-19T03:43:15.202Z,-1.10
2018-12-19T03:45:43.399Z,-1.10
2018-12-19T03:48:15.937Z,-1.10
2018-12-19T03:50:44.129Z,-0.90
2018-12-19T03:53:12.276Z,-0.80
2018-12-19T03:55:47.189Z,-0.90
2018-12-19T03:58:15.400Z,-0.90
2018-12-19T04:00:43.639Z,-1.00
2018-12-19T04:03:11.829Z,-1.00
2018-12-19T04:05:40.001Z,-0.90
2018-12-19T04:08:08.191Z,-1.00
2018-12-19T04:10:36.450Z,-1.00
2018-12-19T04:13:04.809Z,-1.00
2018-12-19T04:15:33.067Z,-1.00
2018-12-19T04:18:01.339Z,-1.00
2018-12-19T04:20:29.520Z,-0.90
2018-12-19T04:22:57.705Z,-1.00
2018-12-19T04:25:25.892Z,-1.00
2018-12-19T04:27:54.166Z,-1.00
2018-12-19T04:30:22.367Z,-1.00
2018-12-19T04:32:50.989Z,-1.00
2018-12-19T04:35:19.185Z,-1.00
2018-12-19T04:37:47.391Z,-1.00
2018-12-19T04:40:15.538Z,-1.00
2018-12-19T04:42:43.703Z,-1.00
2018-12-19T04:45:11.867Z,-1.00
2018-12-19T04:47:40.047Z,-0.90
2018-12-19T04:50:08.471Z,-0.90
2018-12-19T04:52:36.766Z,-0.90
2018-12-19T04:55:05.187Z,-0.80
2018-12-19T04:57:33.445Z,-0.90
2018-12-19T05:00:01.731Z,-0.80
2018-12-19T05:02:29.915Z,-0.80
2018-12-19T05:04:58.119Z,-0.80
2018-12-19T05:07:26.613Z,-0.70
2018-12-19T05:09:54.939Z,-0.70
2018-12-19T05:12:23.216Z,-0.70
2018-12-19T05:14:51.474Z,-0.70
2018-12-19T05:17:19.660Z,-0.70
2018-12-19T05:19:48.152Z,-0.70
2018-12-19T05:22:16.331Z,-0.70
2018-12-19T05:24:44.499Z,-0.60
2018-12-19T05:27:12.698Z,-0.60
2018-12-19T05:29:40.880Z,-0.70
2018-12-19T05:32:09.063Z,-0.70
2018-12-19T05:34:37.242Z,-0.70
2018-12-19T05:37:05.412Z,-0.70
2018-12-19T05:39:33.583Z,-0.70
2018-12-19T05:42:01.932Z,-0.70
2018-12-19T05:44:30.106Z,-0.60
2018-12-19T05:46:58.380Z,-0.70
2018-12-19T05:49:26.523Z,-0.70
2018-12-19T05:51:54.699Z,-0.60
2018-12-19T05:54:22.894Z,-0.60
2018-12-19T05:56:51.081Z,-0.60
2018-12-19T05:59:19.224Z,-0.60
2018-12-19T06:01:47.396Z,-0.60
2018-12-19T06:04:15.655Z,-0.60
2018-12-19T06:06:43.828Z,-0.60
2018-12-19T06:09:12.109Z,-0.60
2018-12-19T06:11:40.327Z,-0.60
2018-12-19T06:14:08.473Z,-0.60
2018-12-19T06:16:36.687Z,-0.60
2018-12-19T06:19:04.918Z,-0.60
2018-12-19T06:21:33.209Z,-0.60
2018-12-19T06:24:01.489Z,-0.60
2018-12-19T06:26:29.715Z,-0.60
2018-12-19T06:28:57.907Z,-0.50
2018-12-19T06:31:26.122Z,-0.50
2018-12-19T06:33:54.725Z,-0.50
2018-12-19T06:36:23.043Z,-0.50
2018-12-19T06:38:51.209Z,-0.50
2018-12-19T06:41:19.511Z,-0.50
2018-12-19T06:43:48.292Z,-0.50
2018-12-19T06:46:16.579Z,-0.50
2018-12-19T06:48:44.756Z,-0.50
2018-12-19T06:51:13.034Z,-0.40
2018-12-19T06:53:41.218Z,-0.40
2018-12-19T06:56:09.429Z,-0.30
2018-12-19T06:58:37.651Z,-0.30
2018-12-19T07:01:05.828Z,-0.30
2018-12-19T07:03:34.015Z,-0.30
2018-12-19T07:06:02.555Z,-0.20
2018-12-19T07:08:30.771Z,-0.20
2018-12-19T07:10:59.028Z,-0.20
2018-12-19T07:13:27.312Z,-0.20
2018-12-19T07:15:55.582Z,-0.20
2018-12-19T07:18:23.859Z,-0.10
2018-12-19T07:20:52.203Z,-0.10
2018-12-19T07:23:20.427Z,-0.10
2018-12-19T07:25:48.631Z,0.00
2018-12-19T07:28:17.343Z,0.00
2018-12-19T07:30:45.549Z,0.10
2018-12-19T07:33:13.748Z,0.10
2018-12-19T07:35:41.968Z,0.20
2018-12-19T07:38:10.157Z,0.20
2018-12-19T07:40:38.353Z,0.20
2018-12-19T07:43:06.634Z,0.30
2018-12-19T07:45:34.816Z,0.30
2018-12-19T07:48:03.070Z,0.40
2018-12-19T07:50:31.276Z,0.40
2018-12-19T07:52:59.540Z,0.40
2018-12-19T07:55:30.211Z,0.50
2018-12-19T07:57:58.447Z,0.50
2018-12-19T08:00:27.550Z,0.50
2018-12-19T08:02:56.145Z,0.50
2018-12-19T08:05:26.255Z,0.60
2018-12-19T08:07:54.768Z,0.60
2018-12-19T08:10:23.027Z,0.60
2018-12-19T08:12:51.301Z,0.70
2018-12-19T08:15:20.512Z,0.70
2018-12-19T08:17:50.832Z,0.70
2018-12-19T08:20:19.003Z,0.70
2018-12-19T08:22:47.284Z,0.70
2018-12-19T08:25:30.157Z,0.70
2018-12-19T08:40:07.852Z,0.70
2018-12-19T08:42:36.892Z,0.70
2018-12-19T08:45:06.418Z,0.70
2018-12-19T08:47:35.459Z,0.70
2018-12-19T08:50:05.114Z,0.70
2018-12-19T08:52:34.261Z,0.70
2018-12-19T08:55:03.183Z,0.80
2018-12-19T08:57:32.108Z,0.80
2018-12-19T09:00:01.027Z,0.80
2018-12-19T09:02:30.315Z,0.80
2018-12-19T09:04:59.473Z,0.80
2018-12-19T09:07:28.634Z,0.80
2018-12-19T09:09:57.916Z,0.90
2018-12-19T09:12:26.959Z,0.90
2018-12-19T09:15:11.831Z,0.90
2018-12-19T09:17:40.008Z,0.90
2018-12-19T09:20:08.813Z,1.00
2018-12-19T09:22:37.175Z,1.00
2018-12-19T09:25:05.485Z,1.00
2018-12-19T09:27:33.668Z,1.10
2018-12-19T09:30:01.834Z,1.10
2018-12-19T09:32:30.020Z,1.10
2018-12-19T09:34:58.175Z,1.10
2018-12-19T09:37:26.412Z,1.10
2018-12-19T09:39:54.546Z,1.10
2018-12-19T09:42:22.696Z,1.10
2018-12-19T09:44:50.873Z,1.10
2018-12-19T09:47:19.044Z,1.10
2018-12-19T09:49:47.203Z,1.10
2018-12-19T09:52:15.431Z,1.10
2018-12-19T09:54:43.632Z,1.20
2018-12-19T09:57:11.791Z,1.20
2018-12-19T09:59:39.927Z,1.20
2018-12-19T10:02:08.585Z,1.20
2018-12-19T10:04:36.724Z,1.30
2018-12-19T10:07:04.869Z,1.40
2018-12-19T10:09:32.997Z,1.40
2018-12-19T10:12:01.227Z,1.40
2018-12-19T10:14:29.450Z,1.40
2018-12-19T10:16:57.595Z,1.50
2018-12-19T10:19:25.737Z,1.50
2018-12-19T10:21:54.036Z,1.40
2018-12-19T10:24:26.504Z,1.50
2018-12-19T10:26:54.640Z,1.60
2018-12-19T10:29:22.792Z,1.60
2018-12-19T10:31:50.951Z,1.50
2018-12-19T10:34:19.262Z,1.50
2018-12-19T10:36:47.403Z,1.50
2018-12-19T10:39:17.487Z,1.50
2018-12-19T10:41:45.752Z,1.60
2018-12-19T10:44:14.327Z,1.60
2018-12-19T10:46:42.572Z,1.60
2018-12-19T10:49:10.730Z,1.60
2018-12-19T10:51:38.863Z,1.60
2018-12-19T10:54:07.002Z,1.70
2018-12-19T10:56:35.217Z,1.70
2018-12-19T10:59:03.443Z,1.60
2018-12-19T11:01:31.610Z,1.70
2018-12-19T11:03:59.775Z,1.60
2018-12-19T11:06:28.060Z,1.70
2018-12-19T11:08:56.289Z,1.70
2018-12-19T11:11:24.415Z,1.70
2018-12-19T11:13:52.571Z,1.60
2018-12-19T11:16:20.736Z,1.60
2018-12-19T11:18:48.932Z,1.60
2018-12-19T11:21:17.103Z,1.60
2018-12-19T11:23:45.315Z,1.50
2018-12-19T11:26:13.518Z,1.50
2018-12-19T11:28:41.742Z,1.60
2018-12-19T11:31:10.043Z,1.60
2018-12-19T11:33:38.216Z,1.60
2018-12-19T11:36:06.396Z,1.60
2018-12-19T11:38:34.535Z,1.60
2018-12-19T11:41:02.690Z,1.70
2018-12-19T11:43:30.855Z,1.70
2018-12-19T11:45:59.038Z,1.70
2018-12-19T11:48:27.183Z,1.70
2018-12-19T11:50:55.438Z,1.70
2018-12-19T11:53:23.570Z,1.70
2018-12-19T11:55:51.707Z,1.70
2018-12-19T11:58:19.851Z,1.70
2018-12-19T12:00:48.065Z,1.80
2018-12-19T12:03:16.297Z,1.80
2018-12-19T12:05:44.432Z,1.80
2018-12-19T12:08:12.608Z,1.90
2018-12-19T12:10:40.767Z,1.90
2018-12-19T12:13:08.932Z,1.90
2018-12-19T12:15:37.058Z,1.90
2018-12-19T12:18:05.228Z,1.90
2018-12-19T12:20:33.375Z,1.90
2018-12-19T12:23:01.601Z,2.00
2018-12-19T12:25:29.825Z,2.00
2018-12-19T12:27:58.047Z,2.00
2018-12-19T12:30:26.189Z,2.00
2018-12-19T12:32:54.414Z,2.10
2018-12-19T12:35:22.553Z,2.10
2018-12-19T12:37:50.698Z,2.10
2018-12-19T12:40:18.839Z,2.20
2018-12-19T12:42:47.064Z,2.20
2018-12-19T12:45:15.231Z,2.30
2018-12-19T12:50:18.105Z,2.40
2018-12-19T12:52:46.366Z,2.40
2018-12-19T12:55:14.532Z,2.50
2018-12-19T12:57:42.787Z,2.50
2018-12-19T13:00:11.077Z,2.60
2018-12-19T13:02:39.247Z,2.60
2018-12-19T13:05:07.595Z,2.60
2018-12-19T13:07:35.797Z,2.70
2018-12-19T13:10:04.772Z,2.70
2018-12-19T13:12:32.904Z,2.70
2018-12-19T13:15:01.055Z,2.80
2018-12-19T13:17:29.300Z,2.80
2018-12-19T13:19:57.468Z,2.90
2018-12-19T13:22:25.645Z,2.90
2018-12-19T13:24:53.780Z,3.00
2018-12-19T13:27:22.024Z,3.00
2018-12-19T13:29:50.169Z,3.00
2018-12-19T13:32:18.586Z,3.00
2018-12-19T13:34:46.727Z,3.10
2018-12-19T13:37:14.884Z,3.10
2018-12-19T13:39:43.250Z,3.10
2018-12-19T13:42:11.592Z,3.10
2018-12-19T13:44:39.732Z,3.10
2018-12-19T13:47:08.000Z,3.10
2018-12-19T13:49:36.155Z,3.10
2018-12-19T13:52:04.342Z,3.10
2018-12-19T13:54:32.489Z,3.10
2018-12-19T13:57:00.668Z,3.20
2018-12-19T13:59:28.837Z,3.20
2018-12-19T14:01:57.053Z,3.10
2018-12-19T14:04:25.208Z,3.10
2018-12-19T14:06:53.452Z,3.10
2018-12-19T14:09:21.601Z,3.10
2018-12-19T14:11:49.745Z,3.20
2018-12-19T14:14:17.904Z,3.10
2018-12-19T14:16:46.042Z,3.20
2018-12-19T14:19:14.207Z,3.30
2018-12-19T14:21:42.362Z,3.30
2018-12-19T14:24:10.499Z,3.30
2018-12-19T14:26:38.640Z,3.30
2018-12-19T14:29:06.788Z,3.40
2018-12-19T14:31:35.076Z,3.50
2018-12-19T14:34:03.300Z,3.40
2018-12-19T14:36:31.436Z,3.40
2018-12-19T14:38:59.595Z,3.30
2018-12-19T14:41:27.748Z,3.30
2018-12-19T14:43:55.872Z,3.30
2018-12-19T14:46:24.025Z,3.20
2018-12-19T14:48:52.240Z,3.20
2018-12-19T14:51:20.675Z,3.10
2018-12-19T14:53:48.811Z,3.00
2018-12-19T14:56:16.987Z,2.90
2018-12-19T14:58:45.156Z,2.90
2018-12-19T15:01:13.388Z,2.80
2018-12-19T15:03:41.628Z,2.70
2018-12-19T15:06:09.796Z,2.70
2018-12-19T15:08:38.012Z,2.70
2018-12-19T15:11:06.175Z,2.60
2018-12-19T15:13:34.318Z,2.60
2018-12-19T15:16:03.601Z,2.60
2018-12-19T15:18:31.923Z,2.60
2018-12-19T15:21:00.458Z,2.60
2018-12-19T15:23:29.616Z,2.60
2018-12-19T15:29:22.386Z,2.60
2018-12-19T15:31:50.961Z,2.60
2018-12-19T15:34:19.536Z,2.60
2018-12-19T15:36:47.952Z,2.60
2018-12-19T15:39:16.499Z,2.60
2018-12-19T15:41:44.929Z,2.60
2018-12-19T15:44:13.192Z,2.70
2018-12-19T15:46:41.603Z,2.70
2018-12-19T15:49:09.830Z,2.70
2018-12-19T15:51:38.096Z,2.70
2018-12-19T15:54:06.294Z,2.70
2018-12-19T15:56:34.648Z,2.70
2018-12-19T15:59:03.007Z,2.70
2018-12-19T16:01:31.239Z,2.70
2018-12-19T16:03:59.401Z,2.70
2018-12-19T16:06:27.836Z,2.70
2018-12-19T16:08:56.015Z,2.70
2018-12-19T16:11:24.179Z,2.70
2018-12-19T16:13:52.363Z,2.70
2018-12-19T16:16:20.590Z,2.70
2018-12-19T16:18:48.736Z,2.70
2018-12-19T16:21:17.043Z,2.70
2018-12-19T16:23:45.204Z,2.80
2018-12-19T16:26:13.363Z,2.70
2018-12-19T16:28:41.528Z,2.70
2018-12-19T16:31:09.675Z,2.70
2018-12-19T16:33:38.274Z,2.70
2018-12-19T16:36:06.451Z,2.80
2018-12-19T16:38:34.621Z,2.80
2018-12-19T16:41:02.797Z,2.90
2018-12-19T16:43:30.920Z,2.90
2018-12-19T16:45:59.063Z,2.80
2018-12-19T16:48:27.206Z,2.80
2018-12-19T16:50:55.397Z,2.90
2018-12-19T16:53:23.510Z,2.80
2018-12-19T16:55:51.668Z,2.80
2018-12-19T16:58:19.861Z,2.80
2018-12-19T17:00:48.031Z,2.80
2018-12-19T17:03:16.189Z,2.80
2018-12-19T17:05:44.455Z,2.80
2018-12-19T17:08:12.626Z,2.80
2018-12-19T17:10:40.763Z,2.90
2018-12-19T17:13:08.901Z,2.90
2018-12-19T17:15:37.360Z,2.90
2018-12-19T17:18:05.571Z,2.90
2018-12-19T17:20:33.724Z,2.90
2018-12-19T17:23:01.892Z,2.90
2018-12-19T17:25:30.593Z,2.90
2018-12-19T17:27:58.738Z,2.90
2018-12-19T17:30:26.919Z,2.90
2018-12-19T17:32:55.091Z,2.90
2018-12-19T17:35:23.271Z,2.90
2018-12-19T17:37:51.440Z,3.00
2018-12-19T17:40:19.622Z,3.00
2018-12-19T17:42:47.773Z,3.00
2018-12-19T17:45:16.100Z,3.00
2018-12-19T17:47:44.478Z,3.10
2018-12-19T17:50:12.760Z,3.10
2018-12-19T17:52:40.905Z,3.00
2018-12-19T17:55:09.071Z,3.10
2018-12-19T17:57:37.234Z,3.10
2018-12-19T18:00:05.702Z,3.10
2018-12-19T18:02:33.858Z,3.00
2018-12-19T18:05:02.065Z,3.00
2018-12-19T18:07:30.199Z,3.00
2018-12-19T18:09:58.371Z,3.00
2018-12-19T18:12:26.604Z,3.00
2018-12-19T18:14:54.831Z,3.10
2018-12-19T18:17:22.993Z,3.10
2018-12-19T18:19:51.242Z,3.10
2018-12-19T18:22:19.392Z,3.10
2018-12-19T18:24:47.592Z,3.10
2018-12-19T18:27:15.791Z,3.20
2018-12-19T18:29:44.020Z,3.10
2018-12-19T18:32:12.186Z,3.10
2018-12-19T18:34:40.371Z,3.10
2018-12-19T18:37:08.546Z,3.20
2018-12-19T18:39:36.743Z,3.20
2018-12-19T18:42:05.007Z,3.20
2018-12-19T18:44:33.323Z,3.20
2018-12-19T18:47:01.548Z,3.20
2018-12-19T18:49:29.789Z,3.20
2018-12-19T18:51:57.963Z,3.20
2018-12-19T18:54:26.212Z,3.20
2018-12-19T18:56:54.363Z,3.30
2018-12-19T18:59:22.532Z,3.40
2018-12-19T19:01:50.874Z,3.40
2018-12-19T19:04:19.136Z,3.40
2018-12-19T19:06:47.337Z,3.40
2018-12-19T19:09:15.499Z,3.40
2018-12-19T19:11:43.726Z,3.50
2018-12-19T19:14:11.918Z,3.40
2018-12-19T19:16:40.102Z,3.40
2018-12-19T19:19:08.375Z,3.40
2018-12-19T19:21:36.697Z,3.40
2018-12-19T19:24:05.230Z,3.40
2018-12-19T19:26:33.683Z,3.40
2018-12-19T19:29:01.915Z,3.30
2018-12-19T19:31:30.073Z,3.30
2018-12-19T19:33:58.275Z,3.30
2018-12-19T19:36:26.444Z,3.30
2018-12-19T19:38:54.625Z,3.30
2018-12-19T19:41:22.998Z,3.40
2018-12-19T19:43:51.212Z,3.50
2018-12-19T19:46:19.359Z,3.40
2018-12-19T19:48:47.897Z,3.40
2018-12-19T19:51:17.077Z,3.40
2018-12-19T19:53:45.554Z,3.40
2018-12-19T19:56:13.835Z,3.40
2018-12-19T19:58:42.042Z,3.50
2018-12-19T20:01:10.217Z,3.40
2018-12-19T20:03:38.364Z,3.50
2018-12-19T20:06:06.515Z,3.50
2018-12-19T20:08:34.704Z,3.40
2018-12-19T20:11:02.894Z,3.40
2018-12-19T20:13:33.431Z,3.40
2018-12-19T20:16:01.306Z,3.40
2018-12-19T20:18:29.667Z,3.50
2018-12-19T20:20:57.984Z,3.40
2018-12-19T20:23:26.177Z,3.40
2018-12-19T20:25:54.431Z,3.40
2018-12-19T20:28:22.571Z,3.40
2018-12-19T20:30:50.735Z,3.30
2018-12-19T20:33:18.911Z,3.30
2018-12-19T20:35:47.182Z,3.60
2018-12-19T20:38:15.352Z,3.60
2018-12-19T20:40:43.541Z,3.50
2018-12-19T20:43:11.946Z,3.50
2018-12-19T20:45:40.207Z,3.40
2018-12-19T20:48:08.361Z,3.40
2018-12-19T20:50:36.639Z,3.40
2018-12-19T20:53:04.774Z,3.40
2018-12-19T20:55:33.904Z,3.40
2018-12-19T20:58:02.120Z,3.60
2018-12-19T21:00:30.396Z,3.50
2018-12-19T21:02:58.619Z,3.50
2018-12-19T21:05:26.816Z,3.50
2018-12-19T21:07:54.990Z,3.50
2018-12-19T21:10:23.417Z,3.50
2018-12-19T21:12:51.592Z,3.50
2018-12-19T21:15:19.864Z,3.50
2018-12-19T21:17:53.479Z,3.50
2018-12-19T21:20:21.647Z,3.50
2018-12-19T21:22:49.886Z,3.50
2018-12-19T21:25:18.322Z,3.50
2018-12-19T21:27:46.495Z,3.60
2018-12-19T21:30:14.662Z,3.60
2018-12-19T21:32:42.912Z,3.70
2018-12-19T21:35:11.093Z,3.60
2018-12-19T21:37:39.325Z,3.60
2018-12-19T21:40:07.675Z,3.60
2018-12-19T21:42:35.868Z,3.60
2018-12-19T21:45:04.419Z,3.60
2018-12-19T21:47:32.625Z,3.60
2018-12-19T21:50:01.020Z,3.70
2018-12-19T21:52:44.000Z,3.60
2018-12-19T21:55:14.684Z,3.60
2018-12-19T21:57:44.085Z,3.60
2018-12-19T22:13:14.580Z,3.50
2018-12-19T22:15:44.170Z,3.50
2018-12-19T22:18:23.914Z,3.50
2018-12-19T22:20:53.106Z,3.50
2018-12-19T22:23:28.387Z,3.50
2018-12-19T22:25:59.025Z,3.50
2018-12-19T22:33:43.070Z,3.50
2018-12-19T22:36:11.225Z,3.50
2018-12-19T22:38:39.457Z,3.60
2018-12-19T22:41:07.667Z,3.60
2018-12-19T22:43:36.039Z,3.60
2018-12-19T22:46:04.389Z,3.60
2018-12-19T22:48:32.639Z,3.60
2018-12-19T22:51:01.123Z,3.60
2018-12-19T22:53:29.567Z,3.60
2018-12-19T22:55:58.012Z,3.60
2018-12-19T22:58:26.491Z,3.60
2018-12-19T23:01:00.527Z,3.50
2018-12-19T23:19:19.922Z,3.40
2018-12-19T23:21:48.203Z,3.40
2018-12-19T23:24:16.954Z,3.40
2018-12-19T23:26:45.456Z,3.50
2018-12-19T23:29:14.244Z,3.50
2018-12-19T23:31:42.499Z,3.50
2018-12-19T23:34:10.716Z,3.50
2018-12-19T23:36:39.251Z,3.50
2018-12-19T23:39:08.347Z,3.50
2018-12-19T23:41:36.668Z,3.50
2018-12-19T23:44:04.883Z,3.50
2018-12-19T23:46:34.914Z,3.50
2018-12-19T23:49:03.159Z,3.50
2018-12-19T23:51:31.442Z,3.60
2018-12-19T23:53:59.679Z,3.50
2018-12-19T23:56:27.890Z,3.50
2018-12-19T23:58:56.264Z,3.50
